Time;durP1;ratioP1;P1;durP2;ratioP2;P2;SDS_P1;SDS_P2;PMS_P1;PMS_P2;Temp;Humidity;BMP_temperature;BMP_pressure;BME280_temperature;BME280_humidity;BME280_pressure;Samples;Min_cycle;Max_cycle;Signal;HPM_P1;HPM_P2
2023/10/04 00:00:15;;;;;;;24.67;4.35;;;11.40;100.00;;;;;;4987292;28;20046;-70
2023/10/04 00:02:48;;;;;;;26.80;4.53;;;11.50;100.00;;;;;;4988345;28;20056;-70
2023/10/04 00:05:17;;;;;;;18.52;3.70;;;11.60;100.00;;;;;;4991401;28;20058;-70
2023/10/04 00:07:48;;;;;;;13.75;4.03;;;11.60;100.00;;;;;;5001988;28;20050;-70
2023/10/04 00:10:18;;;;;;;33.65;4.72;;;11.70;100.00;;;;;;4984213;28;20490;-70
2023/10/04 00:12:47;;;;;;;17.30;3.70;;;11.70;100.00;;;;;;4984381;28;20457;-70
2023/10/04 00:15:20;;;;;;;10.95;3.28;;;11.70;100.00;;;;;;4983533;28;20085;-70
2023/10/04 00:17:48;;;;;;;15.98;3.78;;;11.70;100.00;;;;;;4986832;28;20561;-70
2023/10/04 00:20:16;;;;;;;16.48;3.88;;;11.80;100.00;;;;;;4986105;28;20161;-71
2023/10/04 00:22:46;;;;;;;21.38;3.90;;;11.80;100.00;;;;;;4985422;28;20042;-71
2023/10/04 00:25:20;;;;;;;16.42;3.97;;;11.80;100.00;;;;;;4991520;28;20495;-71
2023/10/04 00:27:57;;;;;;;17.42;4.00;;;11.80;100.00;;;;;;4985196;28;20050;-71
2023/10/04 00:30:26;;;;;;;17.65;3.90;;;11.80;100.00;;;;;;4987191;28;20116;-70
2023/10/04 00:32:56;;;;;;;13.27;3.25;;;11.80;100.00;;;;;;4984381;28;20054;-71
2023/10/04 00:35:25;;;;;;;15.63;3.25;;;11.80;100.00;;;;;;4987068;28;20050;-71
2023/10/04 00:37:59;;;;;;;15.15;3.15;;;11.80;100.00;;;;;;4989353;28;20050;-71
2023/10/04 00:40:33;;;;;;;11.10;2.88;;;11.80;100.00;;;;;;4985193;28;20054;-70
2023/10/04 00:43:13;;;;;;;16.88;3.10;;;11.80;100.00;;;;;;4986236;28;20078;-71
2023/10/04 00:45:44;;;;;;;14.65;3.00;;;11.70;100.00;;;;;;4986058;28;20658;-71
2023/10/04 00:48:13;;;;;;;14.50;3.08;;;11.70;100.00;;;;;;4986915;28;20078;-70
2023/10/04 00:50:41;;;;;;;14.85;3.63;;;11.60;100.00;;;;;;4986386;28;20062;-70
2023/10/04 00:53:14;;;;;;;14.43;3.38;;;11.70;100.00;;;;;;4986197;28;20061;-70
2023/10/04 00:55:43;;;;;;;17.77;3.13;;;11.60;100.00;;;;;;4985302;28;20050;-71
2023/10/04 00:58:17;;;;;;;16.20;2.65;;;11.70;100.00;;;;;;4982082;28;20567;-71
2023/10/04 01:00:47;;;;;;;11.35;2.65;;;11.70;100.00;;;;;;4985180;28;20495;-70
2023/10/04 01:03:16;;;;;;;21.52;3.58;;;11.70;100.00;;;;;;4986489;28;20523;-70
2023/10/04 01:05:47;;;;;;;13.40;2.42;;;11.70;100.00;;;;;;4984914;28;20145;-71
2023/10/04 01:08:20;;;;;;;12.23;2.30;;;11.60;100.00;;;;;;4985654;28;20082;-71
2023/10/04 01:10:52;;;;;;;18.73;3.10;;;11.70;100.00;;;;;;4983290;28;20062;-70
2023/10/04 01:13:26;;;;;;;28.35;3.25;;;11.60;100.00;;;;;;4980913;28;20061;-70
2023/10/04 01:15:57;;;;;;;10.35;2.55;;;11.70;100.00;;;;;;4985425;28;20042;-70
2023/10/04 01:18:28;;;;;;;14.90;3.13;;;11.70;100.00;;;;;;4985653;28;20482;-71
2023/10/04 01:20:55;;;;;;;18.80;3.00;;;11.70;100.00;;;;;;4989538;28;20203;-70
2023/10/04 01:23:23;;;;;;;19.90;2.95;;;11.70;100.00;;;;;;4984141;28;20108;-70
2023/10/04 01:25:50;;;;;;;17.92;2.63;;;11.70;100.00;;;;;;4986474;28;20046;-71
2023/10/04 01:28:26;;;;;;;16.85;3.05;;;11.70;100.00;;;;;;4985948;28;20073;-71
2023/10/04 01:30:59;;;;;;;16.83;3.03;;;11.70;100.00;;;;;;4984549;28;20050;-71
2023/10/04 01:33:30;;;;;;;12.18;3.03;;;11.80;100.00;;;;;;4985518;28;20055;-70
2023/10/04 01:35:58;;;;;;;18.95;3.17;;;11.80;100.00;;;;;;4982360;28;20061;-71
2023/10/04 01:38:27;;;;;;;21.10;3.53;;;11.80;100.00;;;;;;4983571;28;20132;-70
2023/10/04 01:40:56;;;;;;;19.58;3.50;;;11.90;100.00;;;;;;4984984;28;20468;-71
2023/10/04 01:43:27;;;;;;;9.30;3.10;;;11.90;100.00;;;;;;4982262;28;20056;-71
2023/10/04 01:45:59;;;;;;;14.02;3.63;;;11.90;100.00;;;;;;4978042;28;20125;-71
2023/10/04 01:48:36;;;;;;;11.52;2.75;;;12.00;100.00;;;;;;4983404;28;20066;-71
2023/10/04 01:51:06;;;;;;;19.60;3.50;;;12.00;100.00;;;;;;4980811;28;20065;-71
2023/10/04 01:53:34;;;;;;;21.05;3.40;;;12.00;100.00;;;;;;4983469;28;20140;-71
2023/10/04 01:56:06;;;;;;;18.25;3.67;;;12.00;100.00;;;;;;4984023;28;20051;-71
2023/10/04 01:58:37;;;;;;;18.02;3.25;;;12.00;100.00;;;;;;4985249;28;20050;-71
2023/10/04 02:01:06;;;;;;;15.38;3.58;;;11.90;100.00;;;;;;4982532;28;20061;-71
2023/10/04 02:03:33;;;;;;;13.50;3.30;;;11.90;100.00;;;;;;4985575;28;20101;-70
2023/10/04 02:06:01;;;;;;;11.20;3.03;;;11.80;100.00;;;;;;4983276;28;20062;-71
2023/10/04 02:08:29;;;;;;;13.43;3.42;;;11.80;100.00;;;;;;4983133;28;20064;-70
2023/10/04 02:10:57;;;;;;;21.75;4.10;;;11.80;100.00;;;;;;4982959;28;20664;-71
2023/10/04 02:13:27;;;;;;;10.50;3.50;;;11.70;100.00;;;;;;4982864;28;20137;-71
2023/10/04 02:15:59;;;;;;;14.65;3.53;;;11.70;100.00;;;;;;4984231;28;20125;-71
2023/10/04 02:18:26;;;;;;;13.50;3.40;;;11.70;100.00;;;;;;4983907;28;20050;-70
2023/10/04 02:20:54;;;;;;;17.65;3.67;;;11.70;100.00;;;;;;4984817;28;20128;-70
2023/10/04 02:23:23;;;;;;;13.25;3.55;;;11.70;100.00;;;;;;4982401;28;20109;-70
2023/10/04 02:25:52;;;;;;;14.77;4.00;;;11.60;100.00;;;;;;4985978;28;20061;-70
2023/10/04 02:28:22;;;;;;;12.88;3.35;;;11.60;100.00;;;;;;4981575;28;20054;-71
2023/10/04 02:30:56;;;;;;;22.33;4.53;;;11.50;100.00;;;;;;4982036;28;20054;-71
2023/10/04 02:33:31;;;;;;;15.88;3.47;;;11.50;100.00;;;;;;4981737;28;20194;-71
2023/10/04 02:36:01;;;;;;;17.73;4.15;;;11.50;100.00;;;;;;4983910;28;20145;-70
2023/10/04 02:38:34;;;;;;;17.48;3.55;;;11.50;100.00;;;;;;4984035;28;20082;-71
2023/10/04 02:41:05;;;;;;;15.27;4.22;;;11.50;100.00;;;;;;4986806;28;20101;-70
2023/10/04 02:43:33;;;;;;;16.23;3.65;;;11.50;100.00;;;;;;4988889;28;20058;-71
2023/10/04 02:46:01;;;;;;;15.65;4.07;;;11.40;100.00;;;;;;4987189;28;20058;-71
2023/10/04 02:48:34;;;;;;;14.32;3.63;;;11.40;100.00;;;;;;4988792;28;20054;-71
2023/10/04 02:51:05;;;;;;;22.02;3.70;;;11.40;100.00;;;;;;4987514;28;20117;-71
2023/10/04 02:53:41;;;;;;;11.60;3.58;;;11.40;100.00;;;;;;4987136;28;20050;-71
2023/10/04 02:56:09;;;;;;;14.30;4.30;;;11.40;100.00;;;;;;4986923;28;20141;-71
2023/10/04 02:58:39;;;;;;;15.40;2.97;;;11.50;100.00;;;;;;4990384;28;20052;-71
2023/10/04 03:01:17;;;;;;;20.95;4.10;;;11.50;100.00;;;;;;4990123;28;20081;-71
2023/10/04 03:03:51;;;;;;;27.30;4.47;;;11.50;100.00;;;;;;4983531;28;20078;-71
2023/10/04 03:06:23;;;;;;;23.10;3.83;;;11.50;100.00;;;;;;4986563;28;20140;-70
2023/10/04 03:08:55;;;;;;;16.08;3.60;;;11.50;100.00;;;;;;4982134;28;20046;-70
2023/10/04 03:11:25;;;;;;;29.60;3.78;;;11.50;100.00;;;;;;4985518;28;20073;-70
2023/10/04 03:13:55;;;;;;;15.10;3.28;;;11.50;100.00;;;;;;4986396;28;20054;-70
2023/10/04 03:16:22;;;;;;;9.25;3.55;;;11.50;100.00;;;;;;4990211;28;20054;-71
2023/10/04 03:18:50;;;;;;;11.60;3.75;;;11.50;100.00;;;;;;4976297;28;20074;-71
2023/10/04 03:21:26;;;;;;;9.88;3.72;;;11.50;100.00;;;;;;4987244;28;20465;-71
2023/10/04 03:23:56;;;;;;;13.15;4.28;;;11.50;100.00;;;;;;4981014;28;20107;-70
2023/10/04 03:26:26;;;;;;;15.40;4.47;;;11.60;100.00;;;;;;4990683;28;20112;-70
2023/10/04 03:28:54;;;;;;;9.18;3.42;;;11.50;100.00;;;;;;4984093;28;20058;-71
2023/10/04 03:31:23;;;;;;;15.40;3.53;;;11.60;100.00;;;;;;4985879;28;20442;-70
2023/10/04 03:33:53;;;;;;;12.85;3.80;;;11.60;100.00;;;;;;4981664;28;20062;-70
2023/10/04 03:36:21;;;;;;;12.35;3.13;;;11.60;100.00;;;;;;5000477;28;20055;-70
2023/10/04 03:38:49;;;;;;;19.80;4.30;;;11.60;100.00;;;;;;4981910;28;20134;-70
2023/10/04 03:41:19;;;;;;;12.48;3.83;;;11.70;100.00;;;;;;4984669;28;20161;-71
2023/10/04 03:43:46;;;;;;;12.70;3.83;;;11.60;100.00;;;;;;4989637;28;20056;-71
2023/10/04 03:46:17;;;;;;;10.07;3.90;;;11.70;100.00;;;;;;4986149;28;20061;-71
2023/10/04 03:48:49;;;;;;;11.23;3.78;;;11.70;100.00;;;;;;4986453;28;20503;-72
2023/10/04 03:51:21;;;;;;;13.43;3.30;;;11.70;100.00;;;;;;4980269;28;20817;-71
2023/10/04 03:53:50;;;;;;;9.95;3.30;;;11.70;100.00;;;;;;4982856;28;20703;-70
2023/10/04 03:56:18;;;;;;;12.57;3.75;;;11.70;100.00;;;;;;4985132;28;20058;-70
2023/10/04 03:58:45;;;;;;;17.77;3.90;;;11.70;100.00;;;;;;4981760;28;20058;-71
2023/10/04 04:01:14;;;;;;;10.77;3.20;;;11.70;100.00;;;;;;4982331;28;20054;-71
2023/10/04 04:03:44;;;;;;;13.95;3.28;;;11.70;100.00;;;;;;4983871;28;20058;-70
2023/10/04 04:06:12;;;;;;;15.30;3.58;;;11.70;100.00;;;;;;4981833;28;20698;-71
2023/10/04 04:08:39;;;;;;;13.35;4.13;;;11.70;100.00;;;;;;4984222;28;20415;-71
2023/10/04 04:11:06;;;;;;;10.63;4.43;;;11.70;100.00;;;;;;4979586;28;20061;-71
2023/10/04 04:13:34;;;;;;;11.25;3.22;;;11.70;100.00;;;;;;4984681;28;20058;-70
2023/10/04 04:16:09;;;;;;;22.80;4.07;;;11.70;100.00;;;;;;4986305;28;20398;-71
2023/10/04 04:18:40;;;;;;;10.43;3.45;;;11.70;100.00;;;;;;4984504;28;20065;-70
2023/10/04 04:21:07;;;;;;;18.10;3.53;;;11.70;100.00;;;;;;4984526;28;20085;-70
2023/10/04 04:23:35;;;;;;;11.55;3.63;;;11.80;100.00;;;;;;4987773;28;20131;-70
2023/10/04 04:26:05;;;;;;;16.73;3.53;;;11.80;100.00;;;;;;4982538;28;20050;-70
2023/10/04 04:28:36;;;;;;;13.40;3.05;;;11.80;100.00;;;;;;4978959;28;20722;-70
2023/10/04 04:31:14;;;;;;;18.85;3.40;;;11.80;100.00;;;;;;4986410;28;20054;-70
2023/10/04 04:33:42;;;;;;;13.18;2.75;;;11.80;100.00;;;;;;4985034;28;20054;-71
2023/10/04 04:36:17;;;;;;;12.52;2.95;;;11.80;100.00;;;;;;4984491;28;20147;-70
2023/10/04 04:38:47;;;;;;;10.32;2.80;;;11.90;100.00;;;;;;4981060;28;20081;-71
2023/10/04 04:41:17;;;;;;;13.23;3.38;;;11.90;100.00;;;;;;4980059;28;20129;-72
2023/10/04 04:43:44;;;;;;;11.00;3.08;;;11.90;100.00;;;;;;4984729;28;20080;-72
2023/10/04 04:46:16;;;;;;;11.85;3.17;;;11.90;100.00;;;;;;4979340;28;20685;-72
2023/10/04 04:48:44;;;;;;;5.38;2.85;;;12.00;100.00;;;;;;4984268;28;20060;-72
2023/10/04 04:51:11;;;;;;;10.32;3.38;;;12.00;100.00;;;;;;4983421;28;20054;-72
2023/10/04 04:53:39;;;;;;;11.88;3.22;;;12.00;100.00;;;;;;4984575;28;20050;-71
2023/10/04 04:56:14;;;;;;;17.83;3.30;;;12.00;100.00;;;;;;4986051;28;20137;-71
2023/10/04 04:58:52;;;;;;;10.25;3.42;;;12.00;100.00;;;;;;4983445;28;20046;-71
2023/10/04 05:01:21;;;;;;;15.90;3.20;;;12.00;100.00;;;;;;4984046;28;20082;-71
2023/10/04 05:03:50;;;;;;;10.70;3.30;;;11.90;100.00;;;;;;4980503;28;20050;-72
2023/10/04 05:06:25;;;;;;;11.32;3.67;;;11.90;100.00;;;;;;4982142;28;20054;-72
2023/10/04 05:08:56;;;;;;;16.55;3.75;;;11.90;100.00;;;;;;4976425;28;20056;-71
2023/10/04 05:11:25;;;;;;;13.07;2.90;;;11.90;100.00;;;;;;4979452;28;20542;-73
2023/10/04 05:13:55;;;;;;;18.10;3.55;;;12.00;100.00;;;;;;4977596;28;20108;-73
2023/10/04 05:16:22;;;;;;;12.75;2.97;;;12.00;100.00;;;;;;4981192;28;20057;-73
2023/10/04 05:18:49;;;;;;;12.20;3.40;;;12.00;100.00;;;;;;4978521;28;20133;-74
2023/10/04 05:21:16;;;;;;;12.05;3.67;;;12.00;100.00;;;;;;4984065;28;20045;-77
2023/10/04 05:23:43;;;;;;;10.13;2.83;;;12.00;100.00;;;;;;4982172;28;20134;-74
2023/10/04 05:26:12;;;;;;;11.68;3.08;;;12.00;100.00;;;;;;4986023;28;20050;-72
2023/10/04 05:28:40;;;;;;;13.57;3.22;;;12.00;100.00;;;;;;4977466;28;20042;-72
2023/10/04 05:31:08;;;;;;;16.48;3.15;;;12.00;100.00;;;;;;4980569;28;20050;-72
2023/10/04 05:33:35;;;;;;;8.52;2.90;;;12.00;100.00;;;;;;4981049;28;20475;-72
2023/10/04 05:36:03;;;;;;;8.30;2.60;;;12.00;100.00;;;;;;4982456;28;20053;-72
2023/10/04 05:38:32;;;;;;;16.70;3.83;;;12.00;100.00;;;;;;4978192;28;20399;-72
2023/10/04 05:41:00;;;;;;;13.25;2.53;;;12.00;100.00;;;;;;4983358;28;20049;-72
2023/10/04 05:43:29;;;;;;;12.73;3.40;;;12.00;100.00;;;;;;4985400;28;20050;-72
2023/10/04 05:45:57;;;;;;;9.10;3.55;;;12.00;100.00;;;;;;4984727;28;20078;-72
2023/10/04 05:48:26;;;;;;;10.07;2.83;;;12.00;100.00;;;;;;4981258;28;20050;-72
2023/10/04 05:50:58;;;;;;;11.32;3.97;;;12.00;100.00;;;;;;4974841;28;20331;-72
2023/10/04 05:53:26;;;;;;;10.02;3.72;;;12.00;100.00;;;;;;4983003;28;20058;-72
2023/10/04 05:55:54;;;;;;;15.77;4.05;;;12.10;100.00;;;;;;4982253;28;20414;-72
2023/10/04 05:58:21;;;;;;;21.05;3.97;;;12.10;100.00;;;;;;4978476;28;20130;-72
2023/10/04 06:00:55;;;;;;;9.38;3.88;;;12.10;100.00;;;;;;4980477;28;20054;-72
2023/10/04 06:03:23;;;;;;;13.07;3.67;;;12.10;100.00;;;;;;4982517;28;20471;-72
2023/10/04 06:05:51;;;;;;;15.20;4.63;;;12.10;100.00;;;;;;4976447;28;20565;-72
2023/10/04 06:08:19;;;;;;;19.88;3.83;;;12.10;100.00;;;;;;4981532;28;21014;-72
2023/10/04 06:10:50;;;;;;;15.25;4.35;;;12.20;100.00;;;;;;4981416;28;20046;-72
2023/10/04 06:13:17;;;;;;;15.55;3.95;;;12.20;100.00;;;;;;4985777;28;20056;-72
2023/10/04 06:15:46;;;;;;;11.70;3.75;;;12.20;100.00;;;;;;4982537;28;20046;-72
2023/10/04 06:18:18;;;;;;;14.50;4.10;;;12.20;100.00;;;;;;4983674;28;20058;-72
2023/10/04 06:20:45;;;;;;;12.80;3.60;;;12.30;100.00;;;;;;4989754;28;20054;-72
2023/10/04 06:23:17;;;;;;;12.63;3.72;;;12.30;100.00;;;;;;4989455;28;20158;-72
2023/10/04 06:25:46;;;;;;;13.63;3.72;;;12.40;100.00;;;;;;4985633;28;20109;-72
2023/10/04 06:28:14;;;;;;;8.55;3.92;;;12.40;100.00;;;;;;4987352;28;20058;-72
2023/10/04 06:30:42;;;;;;;18.75;3.78;;;12.40;100.00;;;;;;4986273;28;20050;-72
2023/10/04 06:33:11;;;;;;;15.75;3.47;;;12.40;100.00;;;;;;4986156;28;20054;-72
2023/10/04 06:35:41;;;;;;;14.18;3.53;;;12.40;100.00;;;;;;4984871;28;20054;-72
2023/10/04 06:38:09;;;;;;;14.27;3.30;;;12.40;100.00;;;;;;4981468;28;20050;-72
2023/10/04 06:40:36;;;;;;;12.82;3.35;;;12.40;100.00;;;;;;4985865;28;20057;-72
2023/10/04 06:43:05;;;;;;;14.68;3.33;;;12.40;100.00;;;;;;4986159;28;20050;-72
2023/10/04 06:45:34;;;;;;;11.45;2.70;;;12.40;100.00;;;;;;4985787;28;20483;-72
2023/10/04 06:48:04;;;;;;;10.00;2.83;;;12.50;100.00;;;;;;4985752;28;20141;-72
2023/10/04 06:50:33;;;;;;;19.55;3.33;;;12.40;100.00;;;;;;4985922;28;20081;-72
2023/10/04 06:53:03;;;;;;;11.35;3.15;;;12.50;100.00;;;;;;4984514;28;20046;-72
2023/10/04 06:55:31;;;;;;;7.40;2.60;;;12.50;100.00;;;;;;4985409;28;20097;-72
2023/10/04 06:57:59;;;;;;;10.85;2.83;;;12.60;100.00;;;;;;4987544;28;20487;-72
2023/10/04 07:00:30;;;;;;;6.93;2.78;;;12.60;100.00;;;;;;4985807;28;20082;-72
2023/10/04 07:02:59;;;;;;;7.82;2.97;;;12.60;100.00;;;;;;4985502;28;20049;-72
2023/10/04 07:05:37;;;;;;;16.95;3.05;;;12.60;100.00;;;;;;4984826;28;20479;-72
2023/10/04 07:08:06;;;;;;;15.32;3.83;;;12.70;100.00;;;;;;4984939;28;20137;-72
2023/10/04 07:10:34;;;;;;;14.65;3.53;;;12.60;100.00;;;;;;4985197;28;20114;-72
2023/10/04 07:13:02;;;;;;;19.98;4.45;;;12.60;100.00;;;;;;4984716;28;20054;-72
2023/10/04 07:15:35;;;;;;;10.60;3.72;;;12.70;100.00;;;;;;4991773;28;20101;-72
2023/10/04 07:18:06;;;;;;;11.23;4.22;;;12.70;100.00;;;;;;4986298;28;20050;-72
2023/10/04 07:20:34;;;;;;;13.70;3.08;;;12.80;99.80;;;;;;4986408;28;20046;-72
2023/10/04 07:23:03;;;;;;;12.57;3.63;;;12.80;100.00;;;;;;4984624;28;20419;-72
2023/10/04 07:25:32;;;;;;;10.88;2.90;;;12.90;98.80;;;;;;4991747;28;20129;-72
2023/10/04 07:28:03;;;;;;;18.92;3.65;;;12.90;99.30;;;;;;4985556;28;20062;-71
2023/10/04 07:30:36;;;;;;;11.38;3.72;;;13.00;98.80;;;;;;4984436;28;20187;-72
2023/10/04 07:33:03;;;;;;;10.30;3.15;;;13.10;98.60;;;;;;4984483;28;20104;-72
2023/10/04 07:35:31;;;;;;;9.57;3.42;;;13.10;98.30;;;;;;4984244;28;20058;-72
2023/10/04 07:37:59;;;;;;;12.88;3.13;;;13.10;97.80;;;;;;4983873;28;20196;-72
2023/10/04 07:40:30;;;;;;;15.63;3.38;;;13.20;97.70;;;;;;4981791;28;20065;-72
2023/10/04 07:42:59;;;;;;;14.73;3.40;;;13.30;97.00;;;;;;4984706;28;20082;-72
2023/10/04 07:45:28;;;;;;;14.27;3.17;;;13.40;97.10;;;;;;4989017;28;20434;-71
2023/10/04 07:47:56;;;;;;;13.13;2.97;;;13.40;96.30;;;;;;4984254;28;20136;-71
2023/10/04 07:50:25;;;;;;;11.88;2.88;;;13.40;97.30;;;;;;4985109;28;20081;-71
2023/10/04 07:52:56;;;;;;;11.85;3.40;;;13.40;97.10;;;;;;4983684;28;20126;-71
2023/10/04 07:55:25;;;;;;;20.33;3.25;;;13.40;96.40;;;;;;4983735;28;20054;-72
2023/10/04 07:57:58;;;;;;;16.10;3.75;;;13.50;95.20;;;;;;4983640;28;20141;-72
2023/10/04 08:00:26;;;;;;;23.92;3.97;;;13.60;96.90;;;;;;4984546;28;20047;-72
2023/10/04 08:02:53;;;;;;;16.70;3.08;;;13.60;95.10;;;;;;4983986;28;20046;-72
2023/10/04 08:05:23;;;;;;;17.50;3.03;;;13.60;96.50;;;;;;4984777;28;20055;-72
2023/10/04 08:07:52;;;;;;;13.52;3.50;;;13.90;96.40;;;;;;4984813;28;20082;-72
2023/10/04 08:10:23;;;;;;;5.75;2.67;;;14.20;94.60;;;;;;4983504;28;20109;-72
2023/10/04 08:12:53;;;;;;;15.30;2.90;;;14.50;93.80;;;;;;4981778;28;20181;-71
2023/10/04 08:15:21;;;;;;;14.90;2.85;;;14.40;91.30;;;;;;4987775;28;20058;-72
2023/10/04 08:17:49;;;;;;;18.35;3.35;;;14.50;91.90;;;;;;4984259;28;20046;-72
2023/10/04 08:20:17;;;;;;;16.92;3.13;;;14.40;91.30;;;;;;4985040;28;20065;-72
2023/10/04 08:22:45;;;;;;;9.32;3.35;;;14.30;92.60;;;;;;4984126;28;20050;-72
2023/10/04 08:25:16;;;;;;;13.50;3.47;;;14.30;91.70;;;;;;4982921;28;20569;-72
2023/10/04 08:27:44;;;;;;;14.88;3.00;;;14.30;92.00;;;;;;4983306;28;20108;-72
2023/10/04 08:30:13;;;;;;;11.82;3.40;;;14.30;90.90;;;;;;4988057;28;20054;-72
2023/10/04 08:32:41;;;;;;;16.48;3.03;;;14.20;92.70;;;;;;4986586;28;20658;-72
2023/10/04 08:35:21;;;;;;;18.23;3.45;;;14.30;91.20;;;;;;4977154;28;20133;-72
2023/10/04 08:37:48;;;;;;;13.25;3.03;;;14.30;91.80;;;;;;4981868;28;20046;-72
2023/10/04 08:40:18;;;;;;;10.07;3.97;;;14.40;91.00;;;;;;4981677;28;20050;-72
2023/10/04 08:42:50;;;;;;;16.30;3.67;;;14.40;90.90;;;;;;4982976;28;20124;-72
2023/10/04 08:45:22;;;;;;;10.95;3.42;;;14.40;92.30;;;;;;4988507;28;20223;-72
2023/10/04 08:47:51;;;;;;;9.43;3.22;;;14.30;90.90;;;;;;4989450;28;20066;-71
2023/10/04 08:50:43;;;;;;;14.88;3.53;;;14.40;91.40;;;;;;4985914;28;20157;-72
2023/10/04 08:53:18;;;;;;;17.20;3.53;;;14.30;90.70;;;;;;4959618;28;20054;-71
2023/10/04 08:55:51;;;;;;;17.00;3.85;;;14.50;90.50;;;;;;4987567;28;20152;-71
2023/10/04 08:58:19;;;;;;;15.57;3.35;;;14.70;90.40;;;;;;4988948;28;20089;-71
2023/10/04 09:00:48;;;;;;;10.73;3.45;;;14.80;89.60;;;;;;4982664;28;20073;-71
2023/10/04 09:03:15;;;;;;;15.70;3.33;;;14.90;88.70;;;;;;4984038;28;20039;-71
2023/10/04 09:05:46;;;;;;;12.98;3.75;;;14.90;88.70;;;;;;4982410;28;20121;-71
2023/10/04 09:08:16;;;;;;;16.92;4.03;;;14.80;88.80;;;;;;4982511;28;20053;-71
2023/10/04 09:10:44;;;;;;;13.15;3.55;;;14.90;89.10;;;;;;4983463;28;20136;-72
2023/10/04 09:13:12;;;;;;;8.05;3.20;;;14.80;88.40;;;;;;4985241;28;20086;-71
2023/10/04 09:15:39;;;;;;;16.77;4.32;;;14.90;90.10;;;;;;4986303;28;20057;-71
2023/10/04 09:18:07;;;;;;;12.68;3.40;;;15.00;88.00;;;;;;4982997;28;20120;-72
2023/10/04 09:20:36;;;;;;;9.38;3.35;;;14.90;88.30;;;;;;4985360;28;20130;-71
2023/10/04 09:23:23;;;;;;;15.10;4.07;;;15.00;88.20;;;;;;4982976;28;20566;-72
2023/10/04 09:25:55;;;;;;;11.18;3.92;;;15.10;89.10;;;;;;4982919;28;20097;-72
2023/10/04 09:28:39;;;;;;;11.07;3.50;;;15.40;89.00;;;;;;4978602;28;20065;-71
2023/10/04 09:31:12;;;;;;;24.15;4.18;;;15.60;88.20;;;;;;4982001;28;20082;-72
2023/10/04 09:33:40;;;;;;;12.73;2.97;;;15.80;87.20;;;;;;4993357;28;20049;-72
2023/10/04 09:36:10;;;;;;;12.98;3.80;;;15.80;86.60;;;;;;4985086;28;20415;-72
2023/10/04 09:38:39;;;;;;;13.20;3.95;;;15.70;84.80;;;;;;4979950;28;20082;-72
2023/10/04 09:41:09;;;;;;;13.98;3.10;;;15.70;85.10;;;;;;4983004;28;20053;-71
2023/10/04 09:43:39;;;;;;;15.38;3.35;;;15.60;84.90;;;;;;4982475;28;20050;-72
2023/10/04 09:46:12;;;;;;;27.77;3.92;;;15.50;86.80;;;;;;4983257;28;20042;-72
2023/10/04 09:48:44;;;;;;;7.07;3.42;;;15.80;88.20;;;;;;4981266;28;20046;-71
2023/10/04 09:51:13;;;;;;;10.57;2.83;;;15.80;85.50;;;;;;4982982;28;20465;-72
2023/10/04 09:53:42;;;;;;;22.50;4.03;;;16.00;84.60;;;;;;4979933;28;20101;-72
2023/10/04 09:56:11;;;;;;;18.80;3.58;;;16.00;85.50;;;;;;4983617;28;20057;-71
2023/10/04 09:58:50;;;;;;;15.32;3.25;;;16.20;84.20;;;;;;4982145;28;20435;-72
2023/10/04 10:01:19;;;;;;;19.27;3.40;;;16.40;86.60;;;;;;4982718;28;20054;-72
2023/10/04 10:03:56;;;;;;;13.55;3.08;;;16.60;82.50;;;;;;4982978;28;20047;-72
2023/10/04 10:06:26;;;;;;;11.25;2.33;;;16.80;83.20;;;;;;4981996;28;20487;-72
2023/10/04 10:09:05;;;;;;;12.23;2.53;;;17.00;82.70;;;;;;4981625;28;20051;-69
2023/10/04 10:11:32;;;;;;;17.48;2.97;;;17.10;80.70;;;;;;4982502;28;20090;-70
2023/10/04 10:14:10;;;;;;;9.23;2.75;;;17.20;82.20;;;;;;4984599;28;20048;-69
2023/10/04 10:16:38;;;;;;;15.20;3.45;;;17.40;80.50;;;;;;4979827;28;20054;-69
2023/10/04 10:19:06;;;;;;;13.40;3.08;;;17.70;81.10;;;;;;4980433;28;20042;-70
2023/10/04 10:22:15;;;;;;;9.15;2.70;;;17.90;76.80;;;;;;4981454;28;20051;-69
2023/10/04 10:25:16;;;;;;;7.82;2.60;;;17.90;78.30;;;;;;4923285;29;20057;-69
2023/10/04 10:27:43;;;;;;;12.05;2.28;;;18.10;78.50;;;;;;4981702;28;20221;-70
2023/10/04 10:30:16;;;;;;;12.20;2.40;;;18.00;78.50;;;;;;4982431;28;20061;-69
2023/10/04 10:32:55;;;;;;;9.75;2.47;;;17.80;76.10;;;;;;4982598;28;20076;-69
2023/10/04 10:35:57;;;;;;;12.23;2.25;;;17.50;77.00;;;;;;4986786;28;20054;-69
2023/10/04 10:38:39;;;;;;;12.80;2.55;;;17.40;79.20;;;;;;4983181;28;20049;-69
2023/10/04 10:41:29;;;;;;;17.55;2.88;;;17.30;77.30;;;;;;4982691;28;20636;-70
2023/10/04 10:44:11;;;;;;;20.05;2.70;;;17.30;77.90;;;;;;4977938;28;20656;-69
2023/10/04 10:47:01;;;;;;;14.20;2.67;;;17.50;78.80;;;;;;4980451;28;20046;-70
2023/10/04 10:49:50;;;;;;;12.25;2.33;;;17.60;78.90;;;;;;4978569;28;20510;-70
2023/10/04 10:52:27;;;;;;;15.23;2.53;;;17.90;80.50;;;;;;4982286;28;20101;-70
2023/10/04 10:54:56;;;;;;;13.80;2.53;;;18.10;80.20;;;;;;4975576;28;20046;-70
2023/10/04 10:57:25;;;;;;;12.80;2.70;;;18.30;79.00;;;;;;4982504;28;20133;-70
2023/10/04 10:59:53;;;;;;;19.17;2.55;;;18.80;77.00;;;;;;4981921;28;20459;-70
2023/10/04 11:02:21;;;;;;;12.30;2.33;;;19.20;73.00;;;;;;4982753;28;20044;-70
2023/10/04 11:04:50;;;;;;;19.17;2.85;;;19.40;70.50;;;;;;4985102;28;20054;-70
2023/10/04 11:07:19;;;;;;;18.83;2.80;;;19.40;71.50;;;;;;4984044;28;20055;-69
2023/10/04 11:09:51;;;;;;;14.45;2.97;;;19.00;72.00;;;;;;4985112;28;20050;-69
2023/10/04 11:12:22;;;;;;;18.30;2.38;;;18.80;72.70;;;;;;4988624;28;20053;-69
2023/10/04 11:14:51;;;;;;;19.08;2.40;;;19.30;75.70;;;;;;4984980;28;20101;-69
2023/10/04 11:17:20;;;;;;;16.25;3.22;;;20.00;72.90;;;;;;4986009;28;20051;-69
2023/10/04 11:19:50;;;;;;;16.40;2.45;;;20.20;68.60;;;;;;4983299;28;20109;-69
2023/10/04 11:22:19;;;;;;;18.98;2.50;;;20.10;71.50;;;;;;4995478;28;20049;-69
2023/10/04 11:24:47;;;;;;;11.10;2.70;;;20.00;71.60;;;;;;4984837;28;20081;-70
2023/10/04 11:27:23;;;;;;;16.42;2.53;;;19.80;70.20;;;;;;4986962;28;20059;-69
2023/10/04 11:29:52;;;;;;;17.73;2.25;;;19.10;69.60;;;;;;4983199;28;20426;-69
2023/10/04 11:32:21;;;;;;;17.10;2.88;;;19.30;73.00;;;;;;4983738;28;20050;-70
2023/10/04 11:34:48;;;;;;;13.85;2.70;;;20.20;70.70;;;;;;4982827;28;21638;-69
2023/10/04 11:37:15;;;;;;;20.80;2.67;;;20.70;68.90;;;;;;4983210;28;20121;-70
2023/10/04 11:39:44;;;;;;;11.18;2.50;;;20.90;65.40;;;;;;4984921;28;20580;-69
2023/10/04 11:42:23;;;;;;;11.43;2.40;;;21.40;65.40;;;;;;4987207;28;20168;-70
2023/10/04 11:44:50;;;;;;;13.27;2.15;;;21.60;64.00;;;;;;4988624;28;20045;-69
2023/10/04 11:47:31;;;;;;;20.83;2.30;;;21.40;64.50;;;;;;4984952;28;20085;-69
2023/10/04 11:50:00;;;;;;;11.50;2.15;;;22.10;62.50;;;;;;4985142;28;20065;-70
2023/10/04 11:52:31;;;;;;;22.45;3.08;;;22.60;62.60;;;;;;4988743;28;20054;-70
2023/10/04 11:55:00;;;;;;;16.77;2.60;;;23.20;62.60;;;;;;4982914;28;20488;-69
2023/10/04 11:57:29;;;;;;;11.40;3.38;;;22.90;60.60;;;;;;4985035;28;20050;-69
2023/10/04 11:59:56;;;;;;;10.77;2.45;;;22.30;59.50;;;;;;4984330;28;20387;-70
2023/10/04 12:02:25;;;;;;;11.98;2.22;;;22.10;62.60;;;;;;4984228;28;20056;-69
2023/10/04 12:04:53;;;;;;;12.60;2.33;;;22.30;64.30;;;;;;4983718;28;20046;-70
2023/10/04 12:07:20;;;;;;;19.25;3.35;;;22.20;58.80;;;;;;4984438;28;20167;-70
2023/10/04 12:09:47;;;;;;;16.15;2.20;;;22.30;65.40;;;;;;4984055;28;20050;-70
2023/10/04 12:12:17;;;;;;;17.88;2.72;;;22.60;64.50;;;;;;4984266;28;20514;-70
2023/10/04 12:14:45;;;;;;;14.98;2.60;;;23.50;62.30;;;;;;4983716;28;20058;-70
2023/10/04 12:17:12;;;;;;;10.80;2.60;;;23.80;59.10;;;;;;4985482;28;20046;-70
2023/10/04 12:19:39;;;;;;;11.48;2.78;;;23.80;60.80;;;;;;4984089;28;20058;-70
2023/10/04 12:22:09;;;;;;;11.40;2.72;;;23.10;58.80;;;;;;4978535;28;20731;-70
2023/10/04 12:24:39;;;;;;;10.90;2.47;;;23.10;60.30;;;;;;4983012;28;20050;-70
2023/10/04 12:27:08;;;;;;;9.63;2.50;;;23.00;57.40;;;;;;4983783;28;20050;-70
2023/10/04 12:29:36;;;;;;;10.13;2.33;;;22.70;58.80;;;;;;4982723;28;20050;-70
2023/10/04 12:32:06;;;;;;;10.85;2.50;;;22.30;56.20;;;;;;4983219;28;20050;-70
2023/10/04 12:34:34;;;;;;;19.73;3.15;;;22.00;60.00;;;;;;4983435;28;20539;-70
2023/10/04 12:37:01;;;;;;;13.20;2.75;;;21.70;59.50;;;;;;4981210;28;20062;-70
2023/10/04 12:39:28;;;;;;;12.63;2.65;;;21.50;59.60;;;;;;4982790;28;20051;-69
2023/10/04 12:41:55;;;;;;;15.93;2.30;;;21.20;60.40;;;;;;4976300;28;20611;-69
2023/10/04 12:44:23;;;;;;;14.90;2.65;;;20.60;59.40;;;;;;4981855;28;20052;-69
2023/10/04 12:46:50;;;;;;;13.45;2.58;;;20.20;64.70;;;;;;4984045;28;20050;-69
2023/10/04 12:49:20;;;;;;;15.35;2.40;;;20.40;64.20;;;;;;4979769;28;20058;-69